Time;durP1;ratioP1;P1;durP2;ratioP2;P2;SDS_P1;SDS_P2;PMS_P1;PMS_P2;Temp;Humidity;BMP_temperature;BMP_pressure;BME280_temperature;BME280_humidity;BME280_pressure;Samples;Min_cycle;Max_cycle;Signal;HPM_P1;HPM_P2
2023/12/01 00:01:06;;;;;;;50.47;27.37;;;;;;;-143.21;91.25;73341.53;5087138;28;20204;-77
2023/12/01 00:03:33;;;;;;;60.80;29.37;;;;;;;-143.21;90.23;73369.31;5083762;28;20204;-77
2023/12/01 00:06:00;;;;;;;59.27;31.00;;;;;;;-143.21;91.27;73391.13;5085577;28;20216;-77
2023/12/01 00:08:28;;;;;;;61.60;30.30;;;;;;;-143.21;93.04;73389.16;5085456;28;20220;-77
2023/12/01 00:10:55;;;;;;;51.70;28.50;;;;;;;-143.21;93.51;73381.22;5087683;28;20217;-78
2023/12/01 00:13:22;;;;;;;57.20;31.17;;;;;;;-143.21;94.30;73397.09;5085678;28;20232;-78
2023/12/01 00:15:49;;;;;;;56.27;28.57;;;;;;;-143.21;94.09;73395.09;5084884;28;20235;-78
2023/12/01 00:18:16;;;;;;;53.73;27.60;;;;;;;-143.21;94.59;73399.06;5085836;28;20197;-78
2023/12/01 00:20:43;;;;;;;47.00;26.23;;;;;;;-143.21;95.17;73397.09;5086688;28;20691;-79
2023/12/01 00:23:10;;;;;;;46.47;25.33;;;;;;;-143.21;95.25;73389.16;5088092;28;20832;-79
2023/12/01 00:25:38;;;;;;;48.23;26.77;;;;;;;-143.21;95.62;73347.50;5089665;28;20247;-78
2023/12/01 00:28:05;;;;;;;48.27;25.70;;;;;;;-143.21;95.72;73351.47;5089597;28;20651;-79
2023/12/01 00:30:32;;;;;;;44.43;24.03;;;;;;;-143.21;94.68;73341.53;5089468;28;20208;-78
2023/12/01 00:32:59;;;;;;;50.57;25.03;;;;;;;-143.21;93.69;73369.31;5091447;28;20214;-78
2023/12/01 00:35:26;;;;;;;45.63;24.73;;;;;;;-143.21;94.17;73367.34;5089310;28;20208;-78
2023/12/01 00:37:53;;;;;;;52.43;26.90;;;;;;;-143.21;94.89;73337.56;5088624;28;20211;-78
2023/12/01 00:40:19;;;;;;;42.03;24.33;;;;;;;-143.21;95.30;73327.66;5089218;28;20220;-79
2023/12/01 00:42:48;;;;;;;47.63;24.87;;;;;;;-143.21;94.99;73353.44;5090177;28;20204;-78
2023/12/01 00:45:15;;;;;;;47.23;24.93;;;;;;;-143.21;94.79;73319.72;5089913;28;20208;-79
2023/12/01 00:47:42;;;;;;;44.73;24.53;;;;;;;-143.21;95.09;73341.53;5088208;28;20233;-78
2023/12/01 00:50:10;;;;;;;43.57;25.10;;;;;;;-143.21;95.04;73303.84;5088269;28;20200;-79
2023/12/01 00:52:36;;;;;;;41.23;23.67;;;;;;;-143.21;94.67;73325.69;5088302;28;20269;-78
2023/12/01 00:55:03;;;;;;;46.10;24.97;;;;;;;-143.21;94.71;73337.56;5090352;28;20200;-78
2023/12/01 00:57:31;;;;;;;45.43;24.40;;;;;;;-143.21;94.47;73321.72;5087240;28;20543;-78
2023/12/01 00:59:59;;;;;;;45.50;24.30;;;;;;;-143.21;94.36;73317.75;5087535;28;20232;-78
2023/12/01 01:02:26;;;;;;;45.13;24.17;;;;;;;-143.21;94.20;73307.81;5088482;28;20236;-79
2023/12/01 01:04:53;;;;;;;45.20;24.10;;;;;;;-143.21;94.31;73295.91;5087337;28;20204;-77
2023/12/01 01:07:21;;;;;;;45.47;23.77;;;;;;;-143.21;93.63;73282.03;5088624;28;20205;-78
2023/12/01 01:09:47;;;;;;;39.77;23.77;;;;;;;-143.21;92.65;73297.91;5087852;28;20559;-79
2023/12/01 01:12:14;;;;;;;43.10;23.57;;;;;;;-143.21;92.79;73311.78;5087777;28;20212;-79
2023/12/01 01:14:41;;;;;;;40.13;22.50;;;;;;;-143.21;92.02;73361.38;5087793;28;20291;-78
2023/12/01 01:17:09;;;;;;;42.53;23.47;;;;;;;-143.21;92.61;73355.44;5089231;28;20232;-77
2023/12/01 01:19:36;;;;;;;41.27;22.83;;;;;;;-143.21;93.99;73357.41;5085561;28;20755;-78
2023/12/01 01:22:03;;;;;;;40.60;22.97;;;;;;;-143.21;95.27;73347.50;5086982;28;20203;-78
2023/12/01 01:24:30;;;;;;;40.67;23.10;;;;;;;-143.21;95.48;73341.53;5087993;28;20209;-78
2023/12/01 01:26:57;;;;;;;40.93;23.33;;;;;;;-143.21;95.68;73315.75;5090017;28;20216;-78
2023/12/01 01:29:23;;;;;;;42.00;22.70;;;;;;;-143.21;95.34;73331.63;5087826;28;20212;-78
2023/12/01 01:31:50;;;;;;;45.80;23.30;;;;;;;-143.21;95.20;73291.94;5085935;28;20197;-76
2023/12/01 01:34:18;;;;;;;41.10;21.83;;;;;;;-143.21;95.34;73293.94;5082386;28;20207;-77
2023/12/01 01:36:45;;;;;;;37.67;21.27;;;;;;;-143.21;95.30;73289.97;5085570;28;20706;-78
2023/12/01 01:39:12;;;;;;;38.77;22.77;;;;;;;-143.21;95.54;73266.16;5087021;28;20207;-77
2023/12/01 01:41:39;;;;;;;39.50;21.30;;;;;;;-143.21;95.51;73272.13;5083586;28;20530;-78
2023/12/01 01:44:06;;;;;;;36.97;21.40;;;;;;;-143.21;95.78;73268.16;5081774;28;20700;-77
2023/12/01 01:46:33;;;;;;;40.87;22.37;;;;;;;-143.21;95.42;73270.13;5085261;28;20740;-77
2023/12/01 01:49:00;;;;;;;51.87;28.50;;;;;;;-143.21;94.80;73228.47;5087213;28;20212;-78
2023/12/01 01:51:29;;;;;;;49.70;26.10;;;;;;;-143.21;94.41;73278.06;5085589;28;20201;-77
2023/12/01 01:53:56;;;;;;;42.20;24.03;;;;;;;-143.21;94.04;73262.19;5080770;28;20208;-78
2023/12/01 01:56:24;;;;;;;38.63;21.27;;;;;;;-143.21;93.32;73309.81;5083865;28;20702;-77
2023/12/01 01:58:51;;;;;;;45.90;21.93;;;;;;;-143.21;94.29;73289.97;5083532;28;20196;-78
2023/12/01 02:01:18;;;;;;;45.53;23.57;;;;;;;-143.21;95.41;73286.00;5084274;28;20761;-78
2023/12/01 02:03:45;;;;;;;45.80;24.17;;;;;;;-143.21;95.88;73270.13;5082526;28;20211;-78
2023/12/01 02:06:12;;;;;;;39.93;22.97;;;;;;;-143.21;96.27;73248.31;5084743;28;20200;-78
2023/12/01 02:08:44;;;;;;;41.93;23.37;;;;;;;-143.21;95.76;73240.38;5082803;28;20287;-78
2023/12/01 02:11:13;;;;;;;38.30;21.80;;;;;;;-143.21;95.59;73198.72;5084321;28;20262;-79
2023/12/01 02:13:41;;;;;;;39.73;21.17;;;;;;;-143.21;95.63;73218.56;5081459;28;20208;-77
2023/12/01 02:16:09;;;;;;;41.70;22.47;;;;;;;-143.21;94.73;73184.84;5080190;28;20259;-78
2023/12/01 02:18:36;;;;;;;39.70;21.47;;;;;;;-143.21;94.75;73210.63;5078470;28;20262;-77
2023/12/01 02:21:03;;;;;;;41.80;21.67;;;;;;;-143.21;94.43;73216.56;5083816;28;20221;-77
2023/12/01 02:23:31;;;;;;;44.43;21.50;;;;;;;-143.21;94.51;73204.66;5082524;28;20197;-76
2023/12/01 02:25:58;;;;;;;39.47;21.40;;;;;;;-143.21;94.65;73206.66;5086707;28;20217;-77
2023/12/01 02:28:25;;;;;;;37.37;20.87;;;;;;;-143.21;94.64;73192.75;5086097;28;20633;-78
2023/12/01 02:30:55;;;;;;;35.30;20.53;;;;;;;-143.21;94.59;73194.75;5086166;28;20247;-78
2023/12/01 02:33:23;;;;;;;36.50;20.70;;;;;;;-143.21;94.19;73180.88;5089045;28;20207;-77
2023/12/01 02:35:52;;;;;;;39.43;21.30;;;;;;;-143.21;94.27;73182.84;5085878;28;20204;-78
2023/12/01 02:38:19;;;;;;;37.23;20.10;;;;;;;-143.21;93.91;73200.69;5086311;28;20565;-77
2023/12/01 02:40:50;;;;;;;37.17;20.40;;;;;;;-143.21;93.07;73208.63;5085667;28;20232;-77
2023/12/01 02:43:18;;;;;;;43.03;19.90;;;;;;;-143.21;93.78;73222.53;5086629;28;20292;-79
2023/12/01 02:45:44;;;;;;;36.03;19.93;;;;;;;-143.21;95.08;73202.69;5087521;28;20205;-78
2023/12/01 02:48:11;;;;;;;36.07;18.97;;;;;;;-143.21;95.57;73204.66;5084811;28;20201;-78
2023/12/01 02:50:39;;;;;;;36.93;19.07;;;;;;;-143.21;95.59;73188.78;5085730;28;20196;-78
2023/12/01 02:53:06;;;;;;;35.77;19.03;;;;;;;-143.21;95.17;73182.84;5083590;28;20288;-78
2023/12/01 02:55:34;;;;;;;30.87;18.13;;;;;;;-143.21;95.08;73178.88;5088880;28;20201;-78
2023/12/01 02:58:02;;;;;;;36.73;20.07;;;;;;;-143.21;94.61;73147.13;5085318;28;20310;-78
2023/12/01 03:00:29;;;;;;;37.67;18.73;;;;;;;-143.21;94.21;73145.16;5085395;28;20221;-78
2023/12/01 03:02:56;;;;;;;38.10;20.57;;;;;;;-143.21;93.35;73125.31;5085611;28;20221;-77
2023/12/01 03:05:23;;;;;;;33.97;18.90;;;;;;;-143.21;93.32;73151.09;5087032;28;20197;-76
2023/12/01 03:07:50;;;;;;;32.90;19.43;;;;;;;-143.21;92.81;73093.59;5086574;28;20584;-76
2023/12/01 03:10:17;;;;;;;36.03;19.43;;;;;;;-143.21;92.54;73135.25;5066748;28;20199;-76
2023/12/01 03:12:45;;;;;;;33.13;18.67;;;;;;;-143.21;92.89;73147.13;5083408;28;20306;-76
2023/12/01 03:15:17;;;;;;;32.17;18.23;;;;;;;-143.21;92.89;73117.38;5084382;28;20208;-77
2023/12/01 03:17:45;;;;;;;36.73;19.10;;;;;;;-143.21;92.53;73145.16;5087852;28;20197;-76
2023/12/01 03:20:13;;;;;;;34.63;19.53;;;;;;;-143.21;92.86;73133.25;5084908;28;20720;-77
2023/12/01 03:22:42;;;;;;;28.77;17.13;;;;;;;-143.21;92.73;73151.09;5084946;28;20206;-77
2023/12/01 03:25:11;;;;;;;29.97;17.43;;;;;;;-143.21;93.01;73121.34;5085162;28;20222;-77
2023/12/01 03:27:40;;;;;;;27.63;15.27;;;;;;;-143.21;92.88;73139.22;5083423;28;20287;-75
2023/12/01 03:30:13;;;;;;;27.77;15.73;;;;;;;-143.21;92.18;73153.09;5083074;28;20748;-77
2023/12/01 03:32:44;;;;;;;29.60;16.70;;;;;;;-143.21;93.47;73143.16;5083592;28;20189;-78
2023/12/01 03:35:12;;;;;;;27.90;15.83;;;;;;;-143.21;93.97;73097.56;5085707;28;20201;-79
2023/12/01 03:37:39;;;;;;;26.80;15.33;;;;;;;-143.21;94.41;73117.38;5086221;28;20282;-80
2023/12/01 03:40:08;;;;;;;27.73;15.17;;;;;;;-143.21;94.38;73089.63;5087919;28;20224;-78
2023/12/01 03:42:35;;;;;;;32.83;15.03;;;;;;;-143.21;94.42;73057.88;5086422;28;20202;-79
2023/12/01 03:45:01;;;;;;;28.83;15.00;;;;;;;-143.21;94.02;73095.56;5085889;28;20282;-78
2023/12/01 03:47:28;;;;;;;29.30;15.67;;;;;;;-143.21;92.39;73067.78;5085021;28;20280;-79
2023/12/01 03:49:56;;;;;;;26.57;14.63;;;;;;;-143.21;91.74;73051.94;5085638;28;20231;-78
2023/12/01 03:52:23;;;;;;;25.10;14.77;;;;;;;-143.21;91.80;73083.66;5087201;28;20208;-78
2023/12/01 03:54:50;;;;;;;30.53;16.57;;;;;;;-143.21;91.13;73061.84;5085422;28;20212;-77
2023/12/01 03:57:17;;;;;;;25.73;15.83;;;;;;;-143.21;90.32;73057.88;5084809;28;20204;-78
2023/12/01 03:59:43;;;;;;;26.30;15.07;;;;;;;-143.21;91.05;73073.75;5088803;28;20208;-77
2023/12/01 04:02:10;;;;;;;28.97;15.63;;;;;;;-143.21;90.44;73069.78;5090874;28;20233;-78
2023/12/01 04:04:38;;;;;;;27.27;15.93;;;;;;;-143.21;91.24;73103.50;5089843;28;20208;-79
2023/12/01 04:07:07;;;;;;;24.77;15.37;;;;;;;-143.21;90.92;73053.91;5085682;28;20252;-79
2023/12/01 04:09:34;;;;;;;25.20;14.43;;;;;;;-143.21;91.53;73095.56;5089040;28;20199;-78
2023/12/01 04:12:01;;;;;;;27.13;15.00;;;;;;;-143.21;90.92;73047.97;5087116;28;20362;-78
2023/12/01 04:14:29;;;;;;;27.53;14.80;;;;;;;-143.21;91.34;73067.78;5090194;28;20213;-78
2023/12/01 04:16:56;;;;;;;25.03;14.97;;;;;;;-143.21;91.07;73079.69;5088031;28;20734;-78
2023/12/01 04:19:23;;;;;;;32.40;16.37;;;;;;;-143.21;90.74;73087.63;5087827;28;20211;-78
2023/12/01 04:21:52;;;;;;;25.93;14.73;;;;;;;-143.21;92.42;73101.53;5089205;28;20222;-78
2023/12/01 04:24:21;;;;;;;27.07;15.00;;;;;;;-143.21;92.47;73063.84;5091048;28;20212;-78
2023/12/01 04:26:48;;;;;;;23.93;14.53;;;;;;;-143.21;93.32;73065.81;5089198;28;20201;-78
2023/12/01 04:29:15;;;;;;;24.53;14.73;;;;;;;-143.21;92.91;73061.84;5088653;28;20652;-78
2023/12/01 04:31:42;;;;;;;27.10;15.00;;;;;;;-143.21;93.39;73045.97;5086811;28;20286;-78
2023/12/01 04:34:09;;;;;;;28.87;15.10;;;;;;;-143.21;92.20;73055.91;5089143;28;20238;-79
2023/12/01 04:36:36;;;;;;;24.03;14.27;;;;;;;-143.21;91.39;73014.25;5091283;28;20676;-78
2023/12/01 04:39:04;;;;;;;25.00;14.90;;;;;;;-143.21;91.16;73010.28;5089295;28;20202;-78
2023/12/01 04:41:32;;;;;;;25.87;14.73;;;;;;;-143.21;90.87;73010.28;5087955;28;20729;-79
2023/12/01 04:43:59;;;;;;;24.00;14.13;;;;;;;-143.21;91.22;72992.41;5089409;28;20221;-78
2023/12/01 04:46:26;;;;;;;27.23;15.83;;;;;;;-143.21;90.82;73038.03;5090168;28;20765;-78
2023/12/01 04:48:53;;;;;;;24.33;14.03;;;;;;;-143.21;91.03;73045.97;5084675;28;20198;-79
2023/12/01 04:51:19;;;;;;;25.10;15.07;;;;;;;-143.21;90.21;73014.25;5087882;28;20575;-77
2023/12/01 04:53:48;;;;;;;30.13;14.77;;;;;;;-143.21;90.64;73026.16;5088152;28;20660;-78
2023/12/01 04:56:14;;;;;;;26.20;14.97;;;;;;;-143.21;90.80;73045.97;5087453;28;20216;-75
2023/12/01 04:58:43;;;;;;;26.87;13.63;;;;;;;-143.21;90.19;72988.47;5089048;28;20210;-75
2023/12/01 05:01:10;;;;;;;29.77;15.00;;;;;;;-143.21;90.67;73000.34;5087976;28;20235;-74
2023/12/01 05:03:37;;;;;;;23.47;14.37;;;;;;;-143.21;90.29;72974.56;5084772;28;20660;-74
2023/12/01 05:06:04;;;;;;;27.60;14.67;;;;;;;-143.21;90.69;73012.25;5088054;28;20209;-74
2023/12/01 05:08:31;;;;;;;27.10;14.27;;;;;;;-143.21;90.19;73034.06;5090026;28;21500;-75
2023/12/01 05:10:59;;;;;;;24.80;14.47;;;;;;;-143.21;90.84;73042.00;5087255;28;20209;-76
2023/12/01 05:13:25;;;;;;;24.63;13.87;;;;;;;-143.21;92.00;73073.75;5087404;28;20228;-75
2023/12/01 05:15:54;;;;;;;23.67;14.10;;;;;;;-143.21;92.65;73012.25;5086319;28;20233;-76
2023/12/01 05:18:20;;;;;;;25.77;14.13;;;;;;;-143.21;92.94;73047.97;5089160;28;20204;-75
2023/12/01 05:20:48;;;;;;;25.13;14.20;;;;;;;-143.21;92.28;73044.00;5088845;28;20664;-84
2023/12/01 05:23:15;;;;;;;28.77;14.53;;;;;;;-143.21;91.66;72980.53;5084740;28;20205;-76
2023/12/01 05:25:42;;;;;;;25.20;14.30;;;;;;;-143.21;92.01;72996.38;5083520;28;20288;-75
2023/12/01 05:28:10;;;;;;;22.53;14.13;;;;;;;-143.21;91.81;73018.22;5084090;28;20575;-75
2023/12/01 05:30:38;;;;;;;28.67;15.07;;;;;;;-143.21;91.75;72982.50;5089870;28;20679;-74
2023/12/01 05:33:06;;;;;;;21.00;13.30;;;;;;;-143.21;91.32;72998.38;5086518;28;20190;-76
2023/12/01 05:35:35;;;;;;;22.10;13.57;;;;;;;-143.21;91.05;72978.53;5087408;28;20746;-74
2023/12/01 05:38:04;;;;;;;25.07;14.47;;;;;;;-143.21;90.42;72998.38;5086717;28;20285;-75
2023/12/01 05:40:34;;;;;;;24.90;13.60;;;;;;;-143.21;90.96;72962.66;5087861;28;20199;-75
2023/12/01 05:43:01;;;;;;;29.03;17.03;;;;;;;-143.21;90.61;72982.50;5088656;28;20223;-75
2023/12/01 05:45:32;;;;;;;25.30;14.33;;;;;;;-143.21;90.00;72966.63;5086579;28;20338;-75
2023/12/01 05:47:58;;;;;;;30.80;15.97;;;;;;;-143.21;90.26;72966.63;5086502;28;20193;-75
2023/12/01 05:50:28;;;;;;;29.33;16.67;;;;;;;-143.21;90.74;72984.50;5086052;28;20214;-75
2023/12/01 05:52:56;;;;;;;31.03;17.90;;;;;;;-143.21;89.61;73014.25;5089630;28;20654;-76
2023/12/01 05:55:24;;;;;;;31.37;18.87;;;;;;;-143.21;89.88;73038.03;5086227;28;20207;-75
2023/12/01 05:57:53;;;;;;;27.90;16.80;;;;;;;-143.21;91.05;73026.16;5086824;28;20194;-75
2023/12/01 06:00:22;;;;;;;28.37;18.03;;;;;;;-143.21;91.37;73016.22;5086886;28;20567;-75
2023/12/01 06:02:51;;;;;;;36.37;19.73;;;;;;;-143.21;91.83;72994.41;5085062;28;20339;-76
2023/12/01 06:05:19;;;;;;;32.50;18.20;;;;;;;-143.21;92.16;73030.09;5088332;28;20265;-76
2023/12/01 06:07:50;;;;;;;29.10;17.30;;;;;;;-143.21;91.52;72952.75;5086824;28;20544;-76
2023/12/01 06:10:17;;;;;;;38.13;18.27;;;;;;;-143.21;91.60;72982.50;5086408;28;20730;-75
2023/12/01 06:12:45;;;;;;;30.60;17.77;;;;;;;-143.21;91.87;72982.50;5086987;28;20200;-75
2023/12/01 06:15:13;;;;;;;31.37;17.50;;;;;;;-143.21;91.50;72960.69;5088706;28;20207;-76
2023/12/01 06:17:42;;;;;;;29.47;17.50;;;;;;;-143.21;91.68;72976.56;5087571;28;20321;-75
2023/12/01 06:20:17;;;;;;;34.60;18.67;;;;;;;-143.21;91.21;72946.81;5086459;28;20353;-76
2023/12/01 06:22:45;;;;;;;36.63;20.40;;;;;;;-143.21;91.37;72976.56;5084192;28;20304;-75
2023/12/01 06:25:13;;;;;;;39.70;21.10;;;;;;;-143.21;91.04;72968.63;5086113;28;20213;-75
2023/12/01 06:27:41;;;;;;;36.83;19.53;;;;;;;-143.21;91.09;72954.72;5089091;28;20202;-75
2023/12/01 06:30:11;;;;;;;32.47;19.53;;;;;;;-143.21;91.19;72964.66;5086581;28;20327;-75
2023/12/01 06:32:39;;;;;;;34.67;19.70;;;;;;;-143.21;90.72;72958.69;5083124;28;20226;-75
2023/12/01 06:35:08;;;;;;;34.43;20.20;;;;;;;-143.21;90.77;72942.84;5086800;28;20200;-76
2023/12/01 06:37:35;;;;;;;32.13;19.63;;;;;;;-143.21;90.10;72970.59;5085793;28;20293;-75
2023/12/01 06:40:04;;;;;;;34.07;19.80;;;;;;;-143.21;89.71;73012.25;5088430;28;20281;-75
2023/12/01 06:42:32;;;;;;;33.80;20.20;;;;;;;-143.21;91.24;72998.38;5085623;28;20977;-75
2023/12/01 06:44:59;;;;;;;34.30;19.97;;;;;;;-143.21;92.54;73006.31;5086488;28;20208;-76
2023/12/01 06:47:25;;;;;;;36.40;20.13;;;;;;;-143.21;92.95;72986.47;5085542;28;20311;-76
2023/12/01 06:49:52;;;;;;;39.53;21.53;;;;;;;-143.21;92.78;72960.69;5088694;28;20252;-75
2023/12/01 06:52:19;;;;;;;37.63;20.47;;;;;;;-143.21;92.75;72962.66;5085702;28;20195;-75
2023/12/01 06:54:47;;;;;;;37.63;20.13;;;;;;;-143.21;91.86;72917.06;5085831;28;20674;-75
2023/12/01 06:57:14;;;;;;;38.40;22.03;;;;;;;-143.21;91.24;72958.69;5086157;28;20615;-74
2023/12/01 06:59:42;;;;;;;46.37;26.13;;;;;;;-143.21;90.53;72907.13;5087583;28;20321;-75
2023/12/01 07:02:09;;;;;;;43.20;25.17;;;;;;;-143.21;90.56;72952.75;5087097;28;20556;-75
2023/12/01 07:04:36;;;;;;;50.03;27.60;;;;;;;-143.21;90.76;72930.94;5083152;28;20547;-75
2023/12/01 07:07:03;;;;;;;41.27;24.40;;;;;;;-143.21;90.59;72950.78;5086032;28;20206;-75
2023/12/01 07:09:30;;;;;;;39.17;22.40;;;;;;;-143.21;90.97;72944.81;5084768;28;20233;-76
2023/12/01 07:11:58;;;;;;;39.23;23.67;;;;;;;-143.21;91.38;72907.13;5087955;28;20204;-75
2023/12/01 07:14:25;;;;;;;46.13;25.20;;;;;;;-143.21;90.55;72903.16;5085382;28;20211;-75
2023/12/01 07:16:53;;;;;;;46.87;27.00;;;;;;;-143.21;90.29;72911.09;5085450;28;20647;-75
2023/12/01 07:19:20;;;;;;;56.20;30.70;;;;;;;-143.21;88.92;72915.06;5085354;28;20231;-76
2023/12/01 07:21:47;;;;;;;48.67;27.23;;;;;;;-143.21;89.34;72928.94;5086195;28;20230;-75
2023/12/01 07:24:14;;;;;;;46.73;26.10;;;;;;;-143.21;90.61;72948.78;5086424;28;20206;-75
2023/12/01 07:26:41;;;;;;;50.03;25.73;;;;;;;-143.21;90.90;72942.84;5084833;28;20200;-75
2023/12/01 07:29:09;;;;;;;44.33;26.03;;;;;;;-143.21;91.79;72913.09;5085188;28;20580;-75
2023/12/01 07:31:35;;;;;;;49.13;25.67;;;;;;;-143.21;91.84;72885.31;5085647;28;20203;-75
2023/12/01 07:34:04;;;;;;;45.53;25.13;;;;;;;-143.21;92.21;72881.34;5092640;28;20210;-75
2023/12/01 07:36:31;;;;;;;41.90;24.23;;;;;;;-143.21;91.89;72863.50;5089486;28;20294;-76
2023/12/01 07:38:58;;;;;;;36.43;21.30;;;;;;;-143.21;90.79;72853.56;5089422;28;20218;-78
2023/12/01 07:41:25;;;;;;;38.07;20.97;;;;;;;-143.21;90.74;72851.59;5089117;28;20212;-78
2023/12/01 07:43:52;;;;;;;34.30;20.47;;;;;;;-143.21;90.40;72843.66;5092221;28;20197;-78
2023/12/01 07:46:21;;;;;;;41.90;24.20;;;;;;;-143.21;89.34;72831.75;5089002;28;20200;-78
2023/12/01 07:48:48;;;;;;;44.13;24.97;;;;;;;-143.21;88.68;72813.91;5089116;28;20208;-77
2023/12/01 07:51:17;;;;;;;41.80;23.30;;;;;;;-143.21;89.11;72823.81;5087810;28;20635;-77
2023/12/01 07:53:45;;;;;;;41.80;24.90;;;;;;;-143.21;88.24;72811.94;5090074;28;21540;-76
2023/12/01 07:56:19;;;;;;;34.13;21.43;;;;;;;-143.21;88.71;72827.78;5091302;28;20205;-76
2023/12/01 07:58:46;;;;;;;38.83;22.20;;;;;;;-143.21;88.22;72790.09;5089553;28;20277;-77
2023/12/01 08:01:14;;;;;;;34.13;21.03;;;;;;;-143.21;88.27;72855.56;5089342;28;20201;-77
2023/12/01 08:03:41;;;;;;;44.23;21.63;;;;;;;-143.21;89.47;72857.53;5087959;28;20207;-78
2023/12/01 08:06:09;;;;;;;37.07;21.37;;;;;;;-143.21;90.19;72851.59;5090018;28;20527;-76
2023/12/01 08:08:37;;;;;;;39.87;21.97;;;;;;;-143.21;90.62;72857.53;5090297;28;20226;-78
2023/12/01 08:11:05;;;;;;;37.10;20.73;;;;;;;-143.21;90.42;72831.75;5085891;28;20209;-77
2023/12/01 08:13:32;;;;;;;32.93;19.53;;;;;;;-143.21;89.77;72817.88;5088826;28;20266;-78
2023/12/01 08:15:59;;;;;;;33.93;19.63;;;;;;;-143.21;88.78;72802.00;5088443;28;20237;-77
2023/12/01 08:18:26;;;;;;;31.83;17.70;;;;;;;-143.21;88.80;72762.34;5090034;28;20215;-77
2023/12/01 08:20:53;;;;;;;36.07;17.37;;;;;;;-143.21;87.48;72792.09;5088262;28;20226;-77
2023/12/01 08:23:19;;;;;;;25.27;15.87;;;;;;;-143.21;87.33;72800.03;5088139;28;20228;-77
2023/12/01 08:25:48;;;;;;;30.63;16.37;;;;;;;-143.21;87.07;72794.06;5088569;28;20576;-77
2023/12/01 08:28:15;;;;;;;28.50;15.97;;;;;;;-143.21;87.40;72780.19;5090539;28;20204;-76
2023/12/01 08:30:42;;;;;;;25.40;14.00;;;;;;;-143.21;87.00;72790.09;5089130;28;20204;-77
2023/12/01 08:33:09;;;;;;;25.77;15.17;;;;;;;-143.21;86.64;72754.41;5087866;28;20219;-77
2023/12/01 08:35:36;;;;;;;26.07;14.67;;;;;;;-143.21;86.67;72722.66;5088450;28;20196;-77
2023/12/01 08:38:03;;;;;;;29.10;16.37;;;;;;;-143.21;85.62;72750.44;5089562;28;20586;-78
2023/12/01 08:40:30;;;;;;;30.50;16.27;;;;;;;-143.21;84.80;72762.34;5090495;28;20212;-79
2023/12/01 08:42:58;;;;;;;25.10;15.67;;;;;;;-143.21;85.10;72788.13;5088586;28;21035;-81
2023/12/01 08:45:25;;;;;;;31.87;15.83;;;;;;;-143.21;86.86;72786.13;5088599;28;20781;-78
2023/12/01 08:47:51;;;;;;;29.20;15.93;;;;;;;-143.21;86.89;72794.06;5088766;28;20216;-81
2023/12/01 08:50:19;;;;;;;29.03;16.93;;;;;;;-143.21;86.46;72827.78;5090731;28;20273;-80
2023/12/01 08:52:47;;;;;;;31.07;17.53;;;;;;;-143.21;88.75;72815.88;5089245;28;20203;-78
2023/12/01 08:55:13;;;;;;;32.87;20.27;;;;;;;-143.21;88.08;72772.25;5088555;28;20228;-79
2023/12/01 08:57:40;;;;;;;30.63;17.50;;;;;;;-143.21;87.43;72770.28;5088424;28;20204;-77
2023/12/01 09:00:10;;;;;;;27.67;17.07;;;;;;;-143.21;87.88;72800.03;5088509;28;20321;-80
2023/12/01 09:02:37;;;;;;;31.67;17.63;;;;;;;-143.21;89.85;72766.31;5089584;28;20228;-77
2023/12/01 09:05:05;;;;;;;29.47;17.40;;;;;;;-143.21;88.35;72744.50;5086084;28;20192;-79
2023/12/01 09:07:31;;;;;;;36.33;18.03;;;;;;;-143.21;87.31;72696.88;5088959;28;20204;-79
2023/12/01 09:09:59;;;;;;;31.57;17.43;;;;;;;-143.21;87.04;72673.09;5089818;28;20204;-79
2023/12/01 09:12:26;;;;;;;36.43;17.67;;;;;;;-143.21;86.05;72661.19;5090147;28;20208;-78
2023/12/01 09:14:53;;;;;;;31.90;17.40;;;;;;;-143.21;85.88;72621.53;5087381;28;20204;-78
2023/12/01 09:17:21;;;;;;;32.63;17.97;;;;;;;-143.21;84.38;72617.56;5087659;28;20212;-78
2023/12/01 09:19:48;;;;;;;30.90;16.57;;;;;;;-143.21;83.39;72623.50;5087544;28;20211;-79
2023/12/01 09:22:15;;;;;;;31.63;18.03;;;;;;;-143.21;83.70;72579.88;5088673;28;20315;-80
2023/12/01 09:24:42;;;;;;;36.13;18.70;;;;;;;-143.21;83.05;72601.69;5089621;28;20279;-79
2023/12/01 09:27:09;;;;;;;34.50;18.17;;;;;;;-143.21;83.98;72643.34;5086027;28;20674;-79
2023/12/01 09:29:36;;;;;;;30.20;17.60;;;;;;;-143.21;86.49;72671.09;5086134;28;20197;-80
2023/12/01 09:32:03;;;;;;;99.33;62.20;;;;;;;-143.21;85.72;72637.38;5087483;28;20201;-80
2023/12/01 09:34:31;;;;;;;114.53;70.70;;;;;;;-143.21;84.86;72609.63;5090193;28;20231;-79
2023/12/01 09:36:58;;;;;;;79.10;48.77;;;;;;;-143.21;85.05;72577.88;5087218;28;20227;-78
2023/12/01 09:39:25;;;;;;;71.30;41.17;;;;;;;-143.21;83.31;72564.00;5086458;28;20215;-78
2023/12/01 09:41:54;;;;;;;63.40;39.17;;;;;;;-143.21;83.20;72534.25;5086586;28;20200;-78
2023/12/01 09:44:21;;;;;;;56.87;35.20;;;;;;;-143.21;82.15;72532.28;5088536;28;20287;-78
2023/12/01 09:46:49;;;;;;;55.23;33.80;;;;;;;-143.21;81.44;72498.56;5087222;28;20580;-77
2023/12/01 09:49:17;;;;;;;61.73;35.87;;;;;;;-143.21;80.53;72439.06;5086250;28;20205;-77
2023/12/01 09:51:46;;;;;;;59.97;34.03;;;;;;;-143.21;78.88;72306.19;5086541;28;20205;-78
2023/12/01 09:54:13;;;;;;;51.33;29.60;;;;;;;-143.21;73.52;72167.38;5086788;28;20697;-78
2023/12/01 09:56:40;;;;;;;41.70;25.50;;;;;;;-143.21;70.51;71969.06;5088732;28;20197;-77
2023/12/01 09:59:07;;;;;;;35.90;23.00;;;;;;;-143.21;64.48;71756.91;5087659;28;20375;-78
2023/12/01 10:01:34;;;;;;;34.07;20.93;;;;;;;-143.21;60.39;71564.56;5086810;28;20966;-78
2023/12/01 10:04:01;;;;;;;32.70;19.90;;;;;;;-143.21;54.75;71423.78;5086461;28;20220;-76
2023/12/01 10:06:29;;;;;;;32.57;18.93;;;;;;;-143.21;54.56;71382.16;5087252;28;20201;-77
2023/12/01 10:08:57;;;;;;;30.73;16.67;;;;;;;-143.21;54.55;71473.38;5087540;28;20297;-77
2023/12/01 10:11:25;;;;;;;36.53;15.27;;;;;;;-143.21;55.79;71487.25;5086789;28;20223;-77
2023/12/01 10:13:53;;;;;;;22.37;14.63;;;;;;;-143.21;53.72;71405.94;5086603;28;20219;-78
2023/12/01 10:16:24;;;;;;;30.90;15.03;;;;;;;-143.21;52.33;71275.09;5085093;28;20232;-77
2023/12/01 10:18:58;;;;;;;22.37;14.10;;;;;;;-143.21;49.86;71144.25;5088296;28;20215;-79
2023/12/01 10:21:41;;;;;;;18.25;11.82;;;;;;;-143.21;46.59;70955.94;5085713;28;20208;-79
2023/12/01 10:24:17;;;;;;;19.92;11.25;;;;;;;-143.21;45.61;71023.34;5083578;28;20209;-77
2023/12/01 10:26:46;;;;;;;18.15;10.02;;;;;;;-143.21;45.69;71001.53;5084865;28;20571;-79
2023/12/01 10:29:29;;;;;;;17.98;10.63;;;;;;;-143.21;47.75;71072.88;5086829;28;20211;-77
2023/12/01 10:32:00;;;;;;;18.35;10.13;;;;;;;-143.21;49.23;71241.41;5087802;28;20269;-78
2023/12/01 10:34:27;;;;;;;14.23;9.07;;;;;;;-143.21;51.88;71352.44;5087515;28;20212;-79
2023/12/01 10:36:54;;;;;;;12.55;8.45;;;;;;;-143.21;51.86;71328.63;5086036;28;20590;-79
2023/12/01 10:39:27;;;;;;;17.45;9.75;;;;;;;-143.21;51.22;71243.38;5086803;28;20204;-79
2023/12/01 10:41:55;;;;;;;14.90;8.68;;;;;;;-143.21;49.79;71152.19;5085783;28;20201;-79
2023/12/01 10:44:24;;;;;;;12.45;8.15;;;;;;;-143.21;48.00;71003.50;5090841;28;20315;-91
2023/12/01 10:46:51;;;;;;;21.45;10.38;;;;;;;-143.21;45.64;70837.00;5106072;28;20209;-87
2023/12/01 10:49:18;;;;;;;20.83;12.88;;;;;;;-143.21;42.34;70737.88;5112837;28;20210;-88
2023/12/01 10:51:46;;;;;;;20.17;11.88;;;;;;;-143.21;41.70;70686.34;5109276;28;20200;-92
2023/12/01 10:54:14;;;;;;;20.58;12.75;;;;;;;-143.21;41.86;70801.31;5112544;28;20238;-91
2023/12/01 10:56:56;;;;;;;22.83;13.23;;;;;;;-143.21;43.41;70902.41;5116832;28;20193;-91
2023/12/01 10:59:26;;;;;;;20.95;13.82;;;;;;;-143.21;44.48;71029.28;5106495;28;20863;-79
2023/12/01 11:01:54;;;;;;;28.05;15.52;;;;;;;-143.21;45.54;71027.28;5084816;28;20200;-78
2023/12/01 11:04:26;;;;;;;21.98;15.60;;;;;;;-143.21;45.45;71055.06;5085267;28;20232;-77